sensor_id;sensor_type;location;lat;lon;timestamp;temperature;humidity
2945;DHT22;1482;51.398;7.128;2023-04-25T00:01:59;6.90;99.90
2945;DHT22;1482;51.398;7.128;2023-04-25T00:04:25;6.90;99.90
2945;DHT22;1482;51.398;7.128;2023-04-25T00:06:51;7.00;99.90
2945;DHT22;1482;51.398;7.128;2023-04-25T00:09:17;7.00;99.90
2945;DHT22;1482;51.398;7.128;2023-04-25T00:11:43;7.00;99.90
2945;DHT22;1482;51.398;7.128;2023-04-25T00:14:09;7.00;99.90
2945;DHT22;1482;51.398;7.128;2023-04-25T00:16:35;7.10;99.90
2945;DHT22;1482;51.398;7.128;2023-04-25T00:19:03;7.10;99.90
2945;DHT22;1482;51.398;7.128;2023-04-25T00:21:30;7.20;99.90
2945;DHT22;1482;51.398;7.128;2023-04-25T00:23:57;7.20;99.90
2945;DHT22;1482;51.398;7.128;2023-04-25T00:26:22;7.20;99.90
2945;DHT22;1482;51.398;7.128;2023-04-25T00:28:48;7.30;99.90
2945;DHT22;1482;51.398;7.128;2023-04-25T00:31:14;7.30;99.90
2945;DHT22;1482;51.398;7.128;2023-04-25T00:33:39;7.30;99.90
2945;DHT22;1482;51.398;7.128;2023-04-25T00:36:06;7.30;99.90
2945;DHT22;1482;51.398;7.128;2023-04-25T00:38:31;7.40;99.90
2945;DHT22;1482;51.398;7.128;2023-04-25T00:40:57;7.40;99.90
2945;DHT22;1482;51.398;7.128;2023-04-25T00:43:25;7.40;99.90
2945;DHT22;1482;51.398;7.128;2023-04-25T00:45:52;7.40;99.90
2945;DHT22;1482;51.398;7.128;2023-04-25T00:48:18;7.30;99.90
2945;DHT22;1482;51.398;7.128;2023-04-25T00:50:52;7.40;99.90
2945;DHT22;1482;51.398;7.128;2023-04-25T00:53:20;7.40;99.90
2945;DHT22;1482;51.398;7.128;2023-04-25T00:55:46;7.40;99.90
2945;DHT22;1482;51.398;7.128;2023-04-25T00:58:12;7.40;99.90
2945;DHT22;1482;51.398;7.128;2023-04-25T01:00:37;7.50;99.90
2945;DHT22;1482;51.398;7.128;2023-04-25T01:03:03;7.50;99.90
2945;DHT22;1482;51.398;7.128;2023-04-25T01:05:29;7.60;99.90
2945;DHT22;1482;51.398;7.128;2023-04-25T01:07:55;7.50;99.90
2945;DHT22;1482;51.398;7.128;2023-04-25T01:10:21;7.60;99.90
2945;DHT22;1482;51.398;7.128;2023-04-25T01:12:46;7.60;99.90
2945;DHT22;1482;51.398;7.128;2023-04-25T01:15:12;7.70;99.90
2945;DHT22;1482;51.398;7.128;2023-04-25T01:17:38;7.70;99.90
2945;DHT22;1482;51.398;7.128;2023-04-25T01:20:05;7.70;99.90
2945;DHT22;1482;51.398;7.128;2023-04-25T01:22:32;7.60;99.90
2945;DHT22;1482;51.398;7.128;2023-04-25T01:24:58;7.70;99.90
2945;DHT22;1482;51.398;7.128;2023-04-25T01:27:24;7.70;99.90
2945;DHT22;1482;51.398;7.128;2023-04-25T01:29:51;7.70;99.90
2945;DHT22;1482;51.398;7.128;2023-04-25T01:32:17;7.70;99.90
2945;DHT22;1482;51.398;7.128;2023-04-25T01:34:42;7.70;99.90
2945;DHT22;1482;51.398;7.128;2023-04-25T01:37:08;7.60;99.90
2945;DHT22;1482;51.398;7.128;2023-04-25T01:39:34;7.60;99.90
2945;DHT22;1482;51.398;7.128;2023-04-25T01:42:00;7.50;99.90
2945;DHT22;1482;51.398;7.128;2023-04-25T01:44:26;7.60;99.90
2945;DHT22;1482;51.398;7.128;2023-04-25T01:46:51;7.60;99.90
2945;DHT22;1482;51.398;7.128;2023-04-25T01:49:17;7.60;99.90
2945;DHT22;1482;51.398;7.128;2023-04-25T01:51:43;7.60;99.90
2945;DHT22;1482;51.398;7.128;2023-04-25T01:54:10;7.70;99.90
2945;DHT22;1482;51.398;7.128;2023-04-25T01:56:37;7.70;99.90
2945;DHT22;1482;51.398;7.128;2023-04-25T01:59:06;7.60;99.90
2945;DHT22;1482;51.398;7.128;2023-04-25T02:01:32;7.60;99.90
2945;DHT22;1482;51.398;7.128;2023-04-25T02:03:58;7.60;99.90
2945;DHT22;1482;51.398;7.128;2023-04-25T02:06:24;7.60;99.90
2945;DHT22;1482;51.398;7.128;2023-04-25T02:08:49;7.70;99.90
2945;DHT22;1482;51.398;7.128;2023-04-25T02:11:15;7.60;99.90
2945;DHT22;1482;51.398;7.128;2023-04-25T02:13:41;7.60;99.90
2945;DHT22;1482;51.398;7.128;2023-04-25T02:16:06;7.60;99.90
2945;DHT22;1482;51.398;7.128;2023-04-25T02:18:32;7.50;99.90
2945;DHT22;1482;51.398;7.128;2023-04-25T02:20:59;7.50;99.90
2945;DHT22;1482;51.398;7.128;2023-04-25T02:23:25;7.60;99.90
2945;DHT22;1482;51.398;7.128;2023-04-25T02:25:50;7.60;99.90
2945;DHT22;1482;51.398;7.128;2023-04-25T02:28:16;7.60;99.90
2945;DHT22;1482;51.398;7.128;2023-04-25T02:30:42;7.60;99.90
2945;DHT22;1482;51.398;7.128;2023-04-25T02:33:07;7.50;99.90
2945;DHT22;1482;51.398;7.128;2023-04-25T02:35:33;7.50;99.90
2945;DHT22;1482;51.398;7.128;2023-04-25T02:37:59;7.50;99.90
2945;DHT22;1482;51.398;7.128;2023-04-25T02:40:24;7.60;99.90
2945;DHT22;1482;51.398;7.128;2023-04-25T02:42:50;7.60;99.90
2945;DHT22;1482;51.398;7.128;2023-04-25T02:45:15;7.60;99.90
2945;DHT22;1482;51.398;7.128;2023-04-25T02:47:41;7.60;99.90
2945;DHT22;1482;51.398;7.128;2023-04-25T02:50:07;7.60;99.90
2945;DHT22;1482;51.398;7.128;2023-04-25T02:52:32;7.40;99.90
2945;DHT22;1482;51.398;7.128;2023-04-25T02:54:58;7.50;99.90
2945;DHT22;1482;51.398;7.128;2023-04-25T02:57:23;7.50;99.90
2945;DHT22;1482;51.398;7.128;2023-04-25T02:59:49;7.60;99.90
2945;DHT22;1482;51.398;7.128;2023-04-25T03:02:14;7.50;99.90
2945;DHT22;1482;51.398;7.128;2023-04-25T03:04:40;7.60;99.90
2945;DHT22;1482;51.398;7.128;2023-04-25T03:07:06;7.60;99.90
2945;DHT22;1482;51.398;7.128;2023-04-25T03:09:32;7.60;99.90
2945;DHT22;1482;51.398;7.128;2023-04-25T03:11:57;7.60;99.90
2945;DHT22;1482;51.398;7.128;2023-04-25T03:14:23;7.60;99.90
2945;DHT22;1482;51.398;7.128;2023-04-25T03:16:48;7.60;99.90
2945;DHT22;1482;51.398;7.128;2023-04-25T03:19:14;7.60;99.90
2945;DHT22;1482;51.398;7.128;2023-04-25T03:21:42;7.70;99.90
2945;DHT22;1482;51.398;7.128;2023-04-25T03:24:08;7.60;99.90
2945;DHT22;1482;51.398;7.128;2023-04-25T03:26:34;7.60;99.90
2945;DHT22;1482;51.398;7.128;2023-04-25T03:28:59;7.60;99.90
2945;DHT22;1482;51.398;7.128;2023-04-25T03:31:25;7.50;99.90
2945;DHT22;1482;51.398;7.128;2023-04-25T03:33:51;7.50;99.90
2945;DHT22;1482;51.398;7.128;2023-04-25T03:36:16;7.60;99.90
2945;DHT22;1482;51.398;7.128;2023-04-25T03:38:42;7.60;99.90
2945;DHT22;1482;51.398;7.128;2023-04-25T03:41:07;7.60;99.90
2945;DHT22;1482;51.398;7.128;2023-04-25T03:43:33;7.60;99.90
2945;DHT22;1482;51.398;7.128;2023-04-25T03:45:58;7.60;99.90
2945;DHT22;1482;51.398;7.128;2023-04-25T03:48:25;7.60;99.90
2945;DHT22;1482;51.398;7.128;2023-04-25T03:50:52;7.50;99.90
2945;DHT22;1482;51.398;7.128;2023-04-25T03:53:17;7.50;99.90
2945;DHT22;1482;51.398;7.128;2023-04-25T03:55:43;7.40;99.90
2945;DHT22;1482;51.398;7.128;2023-04-25T03:58:08;7.50;99.90
2945;DHT22;1482;51.398;7.128;2023-04-25T04:00:34;7.50;99.90
2945;DHT22;1482;51.398;7.128;2023-04-25T04:03:00;7.50;99.90
2945;DHT22;1482;51.398;7.128;2023-04-25T04:05:26;7.50;99.90
2945;DHT22;1482;51.398;7.128;2023-04-25T04:07:52;7.50;99.90
2945;DHT22;1482;51.398;7.128;2023-04-25T04:10:18;7.50;99.90
2945;DHT22;1482;51.398;7.128;2023-04-25T04:12:44;7.50;99.90
2945;DHT22;1482;51.398;7.128;2023-04-25T04:15:10;7.50;99.90
2945;DHT22;1482;51.398;7.128;2023-04-25T04:17:36;7.60;99.90
2945;DHT22;1482;51.398;7.128;2023-04-25T04:20:01;7.70;99.90
2945;DHT22;1482;51.398;7.128;2023-04-25T04:22:28;7.60;99.90
2945;DHT22;1482;51.398;7.128;2023-04-25T04:24:54;7.60;99.90
2945;DHT22;1482;51.398;7.128;2023-04-25T04:27:20;7.70;99.90
2945;DHT22;1482;51.398;7.128;2023-04-25T04:29:46;7.60;99.90
2945;DHT22;1482;51.398;7.128;2023-04-25T04:32:13;7.60;99.90
2945;DHT22;1482;51.398;7.128;2023-04-25T04:34:38;7.50;99.90
2945;DHT22;1482;51.398;7.128;2023-04-25T04:37:05;7.60;99.90
2945;DHT22;1482;51.398;7.128;2023-04-25T04:39:32;7.60;99.90
2945;DHT22;1482;51.398;7.128;2023-04-25T04:41:58;7.60;99.90
2945;DHT22;1482;51.398;7.128;2023-04-25T04:44:24;7.50;99.90
2945;DHT22;1482;51.398;7.128;2023-04-25T04:46:50;7.60;99.90
2945;DHT22;1482;51.398;7.128;2023-04-25T04:49:16;7.60;99.90
2945;DHT22;1482;51.398;7.128;2023-04-25T04:51:42;7.60;99.90
2945;DHT22;1482;51.398;7.128;2023-04-25T04:54:10;7.50;99.90
2945;DHT22;1482;51.398;7.128;2023-04-25T04:56:35;7.60;99.90
2945;DHT22;1482;51.398;7.128;2023-04-25T04:59:01;7.60;99.90
2945;DHT22;1482;51.398;7.128;2023-04-25T05:01:28;7.50;99.90
2945;DHT22;1482;51.398;7.128;2023-04-25T05:03:55;7.60;99.90
2945;DHT22;1482;51.398;7.128;2023-04-25T05:06:25;7.60;99.90
2945;DHT22;1482;51.398;7.128;2023-04-25T05:08:51;7.60;99.90
2945;DHT22;1482;51.398;7.128;2023-04-25T05:11:19;7.60;99.90
2945;DHT22;1482;51.398;7.128;2023-04-25T05:13:44;7.40;99.90
2945;DHT22;1482;51.398;7.128;2023-04-25T05:16:11;7.40;99.90
2945;DHT22;1482;51.398;7.128;2023-04-25T05:18:37;7.50;99.90
2945;DHT22;1482;51.398;7.128;2023-04-25T05:21:02;7.50;99.90
2945;DHT22;1482;51.398;7.128;2023-04-25T05:23:28;7.70;99.90
2945;DHT22;1482;51.398;7.128;2023-04-25T05:25:55;7.70;99.90
2945;DHT22;1482;51.398;7.128;2023-04-25T05:28:21;7.90;99.90
2945;DHT22;1482;51.398;7.128;2023-04-25T05:30:46;8.00;99.90
2945;DHT22;1482;51.398;7.128;2023-04-25T05:33:12;8.20;99.90
2945;DHT22;1482;51.398;7.128;2023-04-25T05:35:38;8.30;99.90
2945;DHT22;1482;51.398;7.128;2023-04-25T05:38:03;8.60;99.90
2945;DHT22;1482;51.398;7.128;2023-04-25T05:40:29;8.70;99.90
2945;DHT22;1482;51.398;7.128;2023-04-25T05:42:54;8.90;90.20
2945;DHT22;1482;51.398;7.128;2023-04-25T05:45:20;9.10;57.10
2945;DHT22;1482;51.398;7.128;2023-04-25T05:47:45;9.20;30.80
2945;DHT22;1482;51.398;7.128;2023-04-25T05:50:11;9.40;22.30
2945;DHT22;1482;51.398;7.128;2023-04-25T05:52:37;9.60;13.00
2945;DHT22;1482;51.398;7.128;2023-04-25T05:55:02;9.80;1.00
2945;DHT22;1482;51.398;7.128;2023-04-25T05:57:28;9.90;1.00
2945;DHT22;1482;51.398;7.128;2023-04-25T05:59:54;10.00;1.00
2945;DHT22;1482;51.398;7.128;2023-04-25T06:02:20;10.00;1.00
2945;DHT22;1482;51.398;7.128;2023-04-25T06:04:50;10.00;1.00
2945;DHT22;1482;51.398;7.128;2023-04-25T06:07:16;10.00;1.00
2945;DHT22;1482;51.398;7.128;2023-04-25T06:09:41;10.10;1.00
2945;DHT22;1482;51.398;7.128;2023-04-25T06:12:07;10.30;1.00
2945;DHT22;1482;51.398;7.128;2023-04-25T06:14:33;10.70;1.00
2945;DHT22;1482;51.398;7.128;2023-04-25T06:16:59;11.20;1.00
2945;DHT22;1482;51.398;7.128;2023-04-25T06:19:25;11.60;1.00
2945;DHT22;1482;51.398;7.128;2023-04-25T06:21:50;12.30;1.00
2945;DHT22;1482;51.398;7.128;2023-04-25T06:24:16;12.80;1.00
2945;DHT22;1482;51.398;7.128;2023-04-25T06:26:41;13.10;1.00
2945;DHT22;1482;51.398;7.128;2023-04-25T06:29:07;13.40;1.00
2945;DHT22;1482;51.398;7.128;2023-04-25T06:31:32;13.80;1.00
2945;DHT22;1482;51.398;7.128;2023-04-25T06:33:59;14.80;1.00
2945;DHT22;1482;51.398;7.128;2023-04-25T06:36:24;16.00;1.00
2945;DHT22;1482;51.398;7.128;2023-04-25T06:38:51;18.60;1.00
2945;DHT22;1482;51.398;7.128;2023-04-25T06:41:18;19.50;1.00
2945;DHT22;1482;51.398;7.128;2023-04-25T06:43:44;19.10;1.00
2945;DHT22;1482;51.398;7.128;2023-04-25T06:46:09;18.20;1.00
2945;DHT22;1482;51.398;7.128;2023-04-25T06:48:35;17.50;1.00
2945;DHT22;1482;51.398;7.128;2023-04-25T06:51:01;17.00;1.00
2945;DHT22;1482;51.398;7.128;2023-04-25T06:53:26;19.20;1.00
2945;DHT22;1482;51.398;7.128;2023-04-25T06:55:52;20.00;1.00
2945;DHT22;1482;51.398;7.128;2023-04-25T06:58:18;20.50;1.00
2945;DHT22;1482;51.398;7.128;2023-04-25T07:00:43;21.40;1.00
2945;DHT22;1482;51.398;7.128;2023-04-25T07:03:09;21.80;1.00
2945;DHT22;1482;51.398;7.128;2023-04-25T07:05:35;21.50;1.00
2945;DHT22;1482;51.398;7.128;2023-04-25T07:08:00;20.80;1.00
2945;DHT22;1482;51.398;7.128;2023-04-25T07:10:26;19.90;1.00
2945;DHT22;1482;51.398;7.128;2023-04-25T07:12:51;18.90;1.00
2945;DHT22;1482;51.398;7.128;2023-04-25T07:15:17;17.50;1.00
2945;DHT22;1482;51.398;7.128;2023-04-25T07:17:43;16.00;1.00
2945;DHT22;1482;51.398;7.128;2023-04-25T07:20:09;14.60;1.00
2945;DHT22;1482;51.398;7.128;2023-04-25T07:22:35;13.40;1.00
2945;DHT22;1482;51.398;7.128;2023-04-25T07:25:01;12.90;1.00
2945;DHT22;1482;51.398;7.128;2023-04-25T07:27:26;12.10;1.00
2945;DHT22;1482;51.398;7.128;2023-04-25T07:29:52;11.70;1.00
2945;DHT22;1482;51.398;7.128;2023-04-25T07:32:18;11.50;1.00
2945;DHT22;1482;51.398;7.128;2023-04-25T07:34:44;11.30;1.00
2945;DHT22;1482;51.398;7.128;2023-04-25T07:37:10;11.10;1.00
2945;DHT22;1482;51.398;7.128;2023-04-25T07:39:36;11.00;1.00
2945;DHT22;1482;51.398;7.128;2023-04-25T07:42:02;10.80;1.00
2945;DHT22;1482;51.398;7.128;2023-04-25T07:44:29;10.70;1.00
2945;DHT22;1482;51.398;7.128;2023-04-25T07:46:56;10.70;1.00
2945;DHT22;1482;51.398;7.128;2023-04-25T07:49:21;10.70;1.00
2945;DHT22;1482;51.398;7.128;2023-04-25T07:51:47;10.90;1.00
2945;DHT22;1482;51.398;7.128;2023-04-25T07:54:14;11.10;1.00
2945;DHT22;1482;51.398;7.128;2023-04-25T07:56:40;12.50;1.00
2945;DHT22;1482;51.398;7.128;2023-04-25T07:59:06;13.50;1.00
2945;DHT22;1482;51.398;7.128;2023-04-25T08:01:31;14.20;1.00
2945;DHT22;1482;51.398;7.128;2023-04-25T08:03:57;14.80;1.00
2945;DHT22;1482;51.398;7.128;2023-04-25T08:06:22;15.40;1.00
2945;DHT22;1482;51.398;7.128;2023-04-25T08:08:48;17.70;1.00
2945;DHT22;1482;51.398;7.128;2023-04-25T08:11:13;22.30;1.00
2945;DHT22;1482;51.398;7.128;2023-04-25T08:13:39;25.20;1.00
2945;DHT22;1482;51.398;7.128;2023-04-25T08:16:04;26.90;1.00
2945;DHT22;1482;51.398;7.128;2023-04-25T08:18:30;28.30;1.00
2945;DHT22;1482;51.398;7.128;2023-04-25T08:20:56;28.50;1.00
2945;DHT22;1482;51.398;7.128;2023-04-25T08:23:21;28.20;1.00
2945;DHT22;1482;51.398;7.128;2023-04-25T08:25:47;28.30;1.00
2945;DHT22;1482;51.398;7.128;2023-04-25T08:28:12;28.30;1.00
2945;DHT22;1482;51.398;7.128;2023-04-25T08:30:38;27.00;1.00
2945;DHT22;1482;51.398;7.128;2023-04-25T08:33:03;26.00;1.00
2945;DHT22;1482;51.398;7.128;2023-04-25T08:35:29;25.20;1.00
2945;DHT22;1482;51.398;7.128;2023-04-25T08:37:55;24.60;1.00
2945;DHT22;1482;51.398;7.128;2023-04-25T08:40:22;23.70;1.00
2945;DHT22;1482;51.398;7.128;2023-04-25T08:42:52;22.40;1.00
2945;DHT22;1482;51.398;7.128;2023-04-25T08:45:18;21.20;1.00
2945;DHT22;1482;51.398;7.128;2023-04-25T08:47:45;21.20;1.00
2945;DHT22;1482;51.398;7.128;2023-04-25T08:50:11;21.20;1.00
2945;DHT22;1482;51.398;7.128;2023-04-25T08:52:43;20.50;1.00
2945;DHT22;1482;51.398;7.128;2023-04-25T08:55:09;20.00;1.00
2945;DHT22;1482;51.398;7.128;2023-04-25T08:57:37;19.30;1.00
2945;DHT22;1482;51.398;7.128;2023-04-25T09:00:03;18.60;1.00
2945;DHT22;1482;51.398;7.128;2023-04-25T09:02:29;18.00;1.00
2945;DHT22;1482;51.398;7.128;2023-04-25T09:04:56;17.40;1.00
2945;DHT22;1482;51.398;7.128;2023-04-25T09:07:21;16.50;1.00
2945;DHT22;1482;51.398;7.128;2023-04-25T09:09:47;15.60;1.00
2945;DHT22;1482;51.398;7.128;2023-04-25T09:12:13;15.20;1.00
2945;DHT22;1482;51.398;7.128;2023-04-25T09:14:38;15.00;1.00
2945;DHT22;1482;51.398;7.128;2023-04-25T09:17:04;14.70;1.00
2945;DHT22;1482;51.398;7.128;2023-04-25T09:19:32;14.70;1.00
2945;DHT22;1482;51.398;7.128;2023-04-25T09:22:02;14.90;1.00
2945;DHT22;1482;51.398;7.128;2023-04-25T09:24:41;15.00;1.00
2945;DHT22;1482;51.398;7.128;2023-04-25T09:27:13;15.50;1.00
2945;DHT22;1482;51.398;7.128;2023-04-25T09:29:43;16.00;1.00
2945;DHT22;1482;51.398;7.128;2023-04-25T09:32:19;16.50;1.00
2945;DHT22;1482;51.398;7.128;2023-04-25T09:34:53;16.80;1.00
2945;DHT22;1482;51.398;7.128;2023-04-25T09:37:27;16.70;1.00
2945;DHT22;1482;51.398;7.128;2023-04-25T09:39:55;16.60;1.00
2945;DHT22;1482;51.398;7.128;2023-04-25T09:42:24;16.40;1.00
2945;DHT22;1482;51.398;7.128;2023-04-25T09:44:54;16.10;1.00
2945;DHT22;1482;51.398;7.128;2023-04-25T09:47:22;15.80;1.00
2945;DHT22;1482;51.398;7.128;2023-04-25T09:49:48;15.80;1.00
2945;DHT22;1482;51.398;7.128;2023-04-25T09:52:19;15.80;1.00
2945;DHT22;1482;51.398;7.128;2023-04-25T09:54:46;15.90;1.00
2945;DHT22;1482;51.398;7.128;2023-04-25T09:57:16;15.90;1.00
2945;DHT22;1482;51.398;7.128;2023-04-25T09:59:52;16.10;1.00
2945;DHT22;1482;51.398;7.128;2023-04-25T10:02:20;16.00;1.00
2945;DHT22;1482;51.398;7.128;2023-04-25T10:04:51;16.30;1.00
2945;DHT22;1482;51.398;7.128;2023-04-25T10:07:18;16.50;1.00
2945;DHT22;1482;51.398;7.128;2023-04-25T10:09:47;16.30;1.00
2945;DHT22;1482;51.398;7.128;2023-04-25T10:12:13;16.20;1.00
2945;DHT22;1482;51.398;7.128;2023-04-25T10:14:39;16.00;1.00
2945;DHT22;1482;51.398;7.128;2023-04-25T10:17:05;15.30;1.00
2945;DHT22;1482;51.398;7.128;2023-04-25T10:19:32;15.00;1.00
2945;DHT22;1482;51.398;7.128;2023-04-25T10:22:02;15.00;1.00
2945;DHT22;1482;51.398;7.128;2023-04-25T10:24:28;15.10;1.00
2945;DHT22;1482;51.398;7.128;2023-04-25T10:26:54;15.00;1.00
2945;DHT22;1482;51.398;7.128;2023-04-25T10:29:25;15.20;1.00
2945;DHT22;1482;51.398;7.128;2023-04-25T10:31:51;15.10;1.00
2945;DHT22;1482;51.398;7.128;2023-04-25T10:34:17;15.00;1.00
2945;DHT22;1482;51.398;7.128;2023-04-25T10:36:43;15.20;1.00
2945;DHT22;1482;51.398;7.128;2023-04-25T10:39:24;15.40;1.00
2945;DHT22;1482;51.398;7.128;2023-04-25T10:41:58;15.20;1.00
2945;DHT22;1482;51.398;7.128;2023-04-25T10:44:28;15.10;1.00
2945;DHT22;1482;51.398;7.128;2023-04-25T10:46:55;14.90;1.00
2945;DHT22;1482;51.398;7.128;2023-04-25T10:54:57;14.20;1.00
2945;DHT22;1482;51.398;7.128;2023-04-25T10:57:36;14.20;1.00
2945;DHT22;1482;51.398;7.128;2023-04-25T11:00:16;14.30;1.00
2945;DHT22;1482;51.398;7.128;2023-04-25T11:02:46;14.40;1.00
2945;DHT22;1482;51.398;7.128;2023-04-25T11:05:32;14.40;1.00
2945;DHT22;1482;51.398;7.128;2023-04-25T11:07:58;14.20;1.00
2945;DHT22;1482;51.398;7.128;2023-04-25T11:10:32;13.80;1.00
2945;DHT22;1482;51.398;7.128;2023-04-25T11:12:58;13.30;1.00
2945;DHT22;1482;51.398;7.128;2023-04-25T11:15:25;13.00;1.00
2945;DHT22;1482;51.398;7.128;2023-04-25T11:17:52;12.60;1.00
2945;DHT22;1482;51.398;7.128;2023-04-25T11:20:18;12.30;1.00
2945;DHT22;1482;51.398;7.128;2023-04-25T11:22:45;12.10;1.00
2945;DHT22;1482;51.398;7.128;2023-04-25T11:25:12;11.80;1.00
2945;DHT22;1482;51.398;7.128;2023-04-25T11:27:56;11.80;1.00
2945;DHT22;1482;51.398;7.128;2023-04-25T11:30:23;11.90;1.00
2945;DHT22;1482;51.398;7.128;2023-04-25T11:32:49;11.80;1.00
2945;DHT22;1482;51.398;7.128;2023-04-25T11:35:15;11.70;1.00
2945;DHT22;1482;51.398;7.128;2023-04-25T11:37:41;11.80;1.00
2945;DHT22;1482;51.398;7.128;2023-04-25T11:40:08;11.80;1.00
2945;DHT22;1482;51.398;7.128;2023-04-25T11:42:41;11.80;1.00
2945;DHT22;1482;51.398;7.128;2023-04-25T11:45:08;11.90;1.00
2945;DHT22;1482;51.398;7.128;2023-04-25T11:47:35;12.30;1.00
2945;DHT22;1482;51.398;7.128;2023-04-25T11:50:05;12.80;1.00
2945;DHT22;1482;51.398;7.128;2023-04-25T11:52:41;13.20;1.00
2945;DHT22;1482;51.398;7.128;2023-04-25T11:55:15;13.70;1.00
2945;DHT22;1482;51.398;7.128;2023-04-25T11:57:42;14.10;1.00
2945;DHT22;1482;51.398;7.128;2023-04-25T12:00:12;14.50;1.00
2945;DHT22;1482;51.398;7.128;2023-04-25T12:02:43;14.80;1.00
2945;DHT22;1482;51.398;7.128;2023-04-25T12:05:09;15.00;1.00
2945;DHT22;1482;51.398;7.128;2023-04-25T12:07:36;15.10;1.00
2945;DHT22;1482;51.398;7.128;2023-04-25T12:10:07;15.10;1.00
2945;DHT22;1482;51.398;7.128;2023-04-25T12:12:34;15.30;1.00
2945;DHT22;1482;51.398;7.128;2023-04-25T12:15:17;15.50;1.00
2945;DHT22;1482;51.398;7.128;2023-04-25T12:17:45;15.60;1.00
2945;DHT22;1482;51.398;7.128;2023-04-25T12:20:19;15.50;1.00
2945;DHT22;1482;51.398;7.128;2023-04-25T12:22:47;15.30;1.00
2945;DHT22;1482;51.398;7.128;2023-04-25T12:25:13;15.10;1.00
2945;DHT22;1482;51.398;7.128;2023-04-25T12:27:40;14.70;1.00
2945;DHT22;1482;51.398;7.128;2023-04-25T12:30:08;14.40;1.00
2945;DHT22;1482;51.398;7.128;2023-04-25T12:32:33;14.20;1.00
2945;DHT22;1482;51.398;7.128;2023-04-25T12:34:59;14.10;1.00
2945;DHT22;1482;51.398;7.128;2023-04-25T12:37:25;13.90;1.00
2945;DHT22;1482;51.398;7.128;2023-04-25T12:39:50;13.90;1.00
2945;DHT22;1482;51.398;7.128;2023-04-25T12:42:16;14.00;1.00
2945;DHT22;1482;51.398;7.128;2023-04-25T12:44:42;14.00;1.00
2945;DHT22;1482;51.398;7.128;2023-04-25T12:47:07;13.90;1.00
2945;DHT22;1482;51.398;7.128;2023-04-25T12:49:33;13.80;1.00
2945;DHT22;1482;51.398;7.128;2023-04-25T12:51:58;13.80;1.00
2945;DHT22;1482;51.398;7.128;2023-04-25T12:54:24;13.80;1.00
2945;DHT22;1482;51.398;7.128;2023-04-25T12:56:50;13.70;1.00
2945;DHT22;1482;51.398;7.128;2023-04-25T12:59:16;13.80;1.00
2945;DHT22;1482;51.398;7.128;2023-04-25T13:01:42;13.80;1.00
2945;DHT22;1482;51.398;7.128;2023-04-25T13:04:08;14.00;1.00
2945;DHT22;1482;51.398;7.128;2023-04-25T13:06:33;14.20;1.00
2945;DHT22;1482;51.398;7.128;2023-04-25T13:08:59;14.50;1.00
2945;DHT22;1482;51.398;7.128;2023-04-25T13:11:24;15.00;1.00
2945;DHT22;1482;51.398;7.128;2023-04-25T13:13:50;15.20;1.00
2945;DHT22;1482;51.398;7.128;2023-04-25T13:16:15;15.40;1.00
2945;DHT22;1482;51.398;7.128;2023-04-25T13:18:41;15.40;1.00
2945;DHT22;1482;51.398;7.128;2023-04-25T13:21:09;15.40;1.00
2945;DHT22;1482;51.398;7.128;2023-04-25T13:23:34;15.20;1.00
2945;DHT22;1482;51.398;7.128;2023-04-25T13:26:00;15.00;1.00
2945;DHT22;1482;51.398;7.128;2023-04-25T13:28:28;14.80;1.00
2945;DHT22;1482;51.398;7.128;2023-04-25T13:30:54;14.40;1.00
2945;DHT22;1482;51.398;7.128;2023-04-25T13:33:20;14.20;1.00
2945;DHT22;1482;51.398;7.128;2023-04-25T13:35:47;14.10;1.00
2945;DHT22;1482;51.398;7.128;2023-04-25T13:38:22;13.90;1.00
2945;DHT22;1482;51.398;7.128;2023-04-25T13:40:48;13.40;1.00
2945;DHT22;1482;51.398;7.128;2023-04-25T13:43:14;13.20;1.00
2945;DHT22;1482;51.398;7.128;2023-04-25T13:45:39;12.90;1.00
2945;DHT22;1482;51.398;7.128;2023-04-25T13:48:05;12.70;1.00
2945;DHT22;1482;51.398;7.128;2023-04-25T13:50:30;12.50;1.00
2945;DHT22;1482;51.398;7.128;2023-04-25T13:52:57;12.30;1.00
2945;DHT22;1482;51.398;7.128;2023-04-25T13:55:22;12.10;1.00
2945;DHT22;1482;51.398;7.128;2023-04-25T13:57:48;11.90;1.00
2945;DHT22;1482;51.398;7.128;2023-04-25T14:00:14;12.00;1.00
2945;DHT22;1482;51.398;7.128;2023-04-25T14:02:39;12.20;1.00
2945;DHT22;1482;51.398;7.128;2023-04-25T14:05:05;12.40;1.00
2945;DHT22;1482;51.398;7.128;2023-04-25T14:07:33;12.80;1.00
2945;DHT22;1482;51.398;7.128;2023-04-25T14:09:59;13.10;1.00
2945;DHT22;1482;51.398;7.128;2023-04-25T14:12:24;13.30;1.00
2945;DHT22;1482;51.398;7.128;2023-04-25T14:14:50;13.50;1.00
2945;DHT22;1482;51.398;7.128;2023-04-25T14:17:16;13.70;1.00
2945;DHT22;1482;51.398;7.128;2023-04-25T14:19:41;13.80;1.00
2945;DHT22;1482;51.398;7.128;2023-04-25T14:22:13;13.70;1.00
2945;DHT22;1482;51.398;7.128;2023-04-25T14:24:39;13.70;1.00
2945;DHT22;1482;51.398;7.128;2023-04-25T14:27:05;13.90;1.00
2945;DHT22;1482;51.398;7.128;2023-04-25T14:29:31;13.90;1.00
2945;DHT22;1482;51.398;7.128;2023-04-25T14:31:56;13.80;1.00
2945;DHT22;1482;51.398;7.128;2023-04-25T14:34:24;13.70;1.00
2945;DHT22;1482;51.398;7.128;2023-04-25T14:36:49;13.60;1.00
2945;DHT22;1482;51.398;7.128;2023-04-25T14:39:15;13.40;1.00
2945;DHT22;1482;51.398;7.128;2023-04-25T14:41:42;13.20;1.00
2945;DHT22;1482;51.398;7.128;2023-04-25T14:44:07;13.00;1.00
2945;DHT22;1482;51.398;7.128;2023-04-25T14:46:33;13.10;1.00
2945;DHT22;1482;51.398;7.128;2023-04-25T14:48:59;13.00;1.00
2945;DHT22;1482;51.398;7.128;2023-04-25T14:51:24;12.80;1.00
2945;DHT22;1482;51.398;7.128;2023-04-25T14:53:51;12.70;1.00
2945;DHT22;1482;51.398;7.128;2023-04-25T14:56:18;12.80;1.00
2945;DHT22;1482;51.398;7.128;2023-04-25T14:58:44;12.90;1.00
2945;DHT22;1482;51.398;7.128;2023-04-25T15:01:11;12.90;1.00
2945;DHT22;1482;51.398;7.128;2023-04-25T15:03:36;12.90;1.00
2945;DHT22;1482;51.398;7.128;2023-04-25T15:06:02;13.00;1.00
2945;DHT22;1482;51.398;7.128;2023-04-25T15:08:28;13.10;1.00
2945;DHT22;1482;51.398;7.128;2023-04-25T15:10:53;13.20;1.00
2945;DHT22;1482;51.398;7.128;2023-04-25T15:13:19;13.30;1.00
2945;DHT22;1482;51.398;7.128;2023-04-25T15:15:44;13.10;1.00
2945;DHT22;1482;51.398;7.128;2023-04-25T15:18:20;12.70;1.00
2945;DHT22;1482;51.398;7.128;2023-04-25T15:20:48;12.60;1.00
2945;DHT22;1482;51.398;7.128;2023-04-25T15:23:13;12.50;1.00
2945;DHT22;1482;51.398;7.128;2023-04-25T15:25:39;12.50;1.00
2945;DHT22;1482;51.398;7.128;2023-04-25T15:28:05;12.70;1.00
2945;DHT22;1482;51.398;7.128;2023-04-25T15:30:30;12.80;1.00
2945;DHT22;1482;51.398;7.128;2023-04-25T15:32:56;13.00;1.00
2945;DHT22;1482;51.398;7.128;2023-04-25T15:35:21;13.20;1.00
2945;DHT22;1482;51.398;7.128;2023-04-25T15:37:47;13.20;1.00
2945;DHT22;1482;51.398;7.128;2023-04-25T15:40:16;13.30;1.00
2945;DHT22;1482;51.398;7.128;2023-04-25T15:42:47;13.20;1.00
2945;DHT22;1482;51.398;7.128;2023-04-25T15:45:14;13.30;1.00
2945;DHT22;1482;51.398;7.128;2023-04-25T15:47:41;13.20;1.00
2945;DHT22;1482;51.398;7.128;2023-04-25T15:50:08;13.30;1.00
2945;DHT22;1482;51.398;7.128;2023-04-25T15:52:35;13.10;1.00
2945;DHT22;1482;51.398;7.128;2023-04-25T15:55:01;13.10;1.00
2945;DHT22;1482;51.398;7.128;2023-04-25T15:57:28;13.10;1.00
2945;DHT22;1482;51.398;7.128;2023-04-25T15:59:54;13.10;1.00
2945;DHT22;1482;51.398;7.128;2023-04-25T16:02:20;13.00;1.00
2945;DHT22;1482;51.398;7.128;2023-04-25T16:04:46;13.10;1.00
2945;DHT22;1482;51.398;7.128;2023-04-25T16:07:13;13.10;1.00
2945;DHT22;1482;51.398;7.128;2023-04-25T16:09:39;12.90;1.00
2945;DHT22;1482;51.398;7.128;2023-04-25T16:12:05;12.90;1.00
2945;DHT22;1482;51.398;7.128;2023-04-25T16:14:32;12.80;1.00
2945;DHT22;1482;51.398;7.128;2023-04-25T16:16:57;12.70;1.00
2945;DHT22;1482;51.398;7.128;2023-04-25T16:19:23;12.80;1.00